sensor_id;sensor_type;location;lat;lon;timestamp;temperature;humidity
20364;DHT22;10340;53.664;9.908;2022-11-15T00:02:17;5.70;99.90
20364;DHT22;10340;53.664;9.908;2022-11-15T00:04:44;5.70;99.90
20364;DHT22;10340;53.664;9.908;2022-11-15T00:07:11;5.70;99.90
20364;DHT22;10340;53.664;9.908;2022-11-15T00:09:40;5.80;99.90
20364;DHT22;10340;53.664;9.908;2022-11-15T00:12:07;5.70;99.90
20364;DHT22;10340;53.664;9.908;2022-11-15T00:14:34;5.70;99.90
20364;DHT22;10340;53.664;9.908;2022-11-15T00:17:01;5.60;99.90
20364;DHT22;10340;53.664;9.908;2022-11-15T00:19:28;5.60;99.90
20364;DHT22;10340;53.664;9.908;2022-11-15T00:21:55;5.60;99.90
20364;DHT22;10340;53.664;9.908;2022-11-15T00:24:22;5.60;99.90
20364;DHT22;10340;53.664;9.908;2022-11-15T00:26:50;5.60;99.90
20364;DHT22;10340;53.664;9.908;2022-11-15T00:29:17;5.60;99.90
20364;DHT22;10340;53.664;9.908;2022-11-15T00:31:44;5.50;99.90
20364;DHT22;10340;53.664;9.908;2022-11-15T00:34:11;5.50;99.90
20364;DHT22;10340;53.664;9.908;2022-11-15T00:36:38;5.50;99.90
20364;DHT22;10340;53.664;9.908;2022-11-15T00:39:05;5.50;99.90
20364;DHT22;10340;53.664;9.908;2022-11-15T00:41:32;5.60;99.90
20364;DHT22;10340;53.664;9.908;2022-11-15T00:44:00;5.60;99.90
20364;DHT22;10340;53.664;9.908;2022-11-15T00:46:27;5.70;99.90
20364;DHT22;10340;53.664;9.908;2022-11-15T00:48:54;5.70;99.90
20364;DHT22;10340;53.664;9.908;2022-11-15T00:51:21;5.80;99.90
20364;DHT22;10340;53.664;9.908;2022-11-15T00:53:48;5.80;99.90
20364;DHT22;10340;53.664;9.908;2022-11-15T00:56:15;5.80;99.90
20364;DHT22;10340;53.664;9.908;2022-11-15T00:58:42;5.80;99.90
20364;DHT22;10340;53.664;9.908;2022-11-15T01:01:12;5.90;99.90
20364;DHT22;10340;53.664;9.908;2022-11-15T01:03:41;5.90;99.90
20364;DHT22;10340;53.664;9.908;2022-11-15T01:06:08;5.90;99.90
20364;DHT22;10340;53.664;9.908;2022-11-15T01:08:38;5.90;99.90
20364;DHT22;10340;53.664;9.908;2022-11-15T01:11:07;5.90;99.90
20364;DHT22;10340;53.664;9.908;2022-11-15T01:13:36;6.00;99.90
20364;DHT22;10340;53.664;9.908;2022-11-15T01:16:10;6.00;99.90
20364;DHT22;10340;53.664;9.908;2022-11-15T01:18:39;6.00;99.90
20364;DHT22;10340;53.664;9.908;2022-11-15T01:21:07;5.90;99.90
20364;DHT22;10340;53.664;9.908;2022-11-15T01:23:35;6.00;99.90
20364;DHT22;10340;53.664;9.908;2022-11-15T01:26:03;6.00;99.90
20364;DHT22;10340;53.664;9.908;2022-11-15T01:28:31;5.90;99.90
20364;DHT22;10340;53.664;9.908;2022-11-15T01:30:58;5.90;99.90
20364;DHT22;10340;53.664;9.908;2022-11-15T01:33:27;5.80;99.90
20364;DHT22;10340;53.664;9.908;2022-11-15T01:35:55;5.80;99.90
20364;DHT22;10340;53.664;9.908;2022-11-15T01:38:22;5.80;99.90
20364;DHT22;10340;53.664;9.908;2022-11-15T01:40:49;5.70;99.90
20364;DHT22;10340;53.664;9.908;2022-11-15T01:43:21;5.70;99.90
20364;DHT22;10340;53.664;9.908;2022-11-15T01:45:51;5.60;99.90
20364;DHT22;10340;53.664;9.908;2022-11-15T01:48:19;5.70;99.90
20364;DHT22;10340;53.664;9.908;2022-11-15T01:50:48;5.70;99.90
20364;DHT22;10340;53.664;9.908;2022-11-15T01:53:17;5.60;99.90
20364;DHT22;10340;53.664;9.908;2022-11-15T01:55:46;5.60;99.90
20364;DHT22;10340;53.664;9.908;2022-11-15T01:58:13;5.60;99.90
20364;DHT22;10340;53.664;9.908;2022-11-15T02:00:40;6.20;99.90
20364;DHT22;10340;53.664;9.908;2022-11-15T02:03:07;5.50;99.90
20364;DHT22;10340;53.664;9.908;2022-11-15T02:05:35;5.60;99.90
20364;DHT22;10340;53.664;9.908;2022-11-15T02:08:05;5.60;99.90
20364;DHT22;10340;53.664;9.908;2022-11-15T02:10:33;5.50;99.90
20364;DHT22;10340;53.664;9.908;2022-11-15T02:13:00;5.40;99.90
20364;DHT22;10340;53.664;9.908;2022-11-15T02:15:37;5.40;99.90
20364;DHT22;10340;53.664;9.908;2022-11-15T02:18:11;5.40;99.90
20364;DHT22;10340;53.664;9.908;2022-11-15T02:20:55;5.40;99.90
20364;DHT22;10340;53.664;9.908;2022-11-15T02:23:58;5.30;99.90
20364;DHT22;10340;53.664;9.908;2022-11-15T02:27:04;5.30;99.90
20364;DHT22;10340;53.664;9.908;2022-11-15T02:29:48;5.20;99.90
20364;DHT22;10340;53.664;9.908;2022-11-15T02:32:28;5.20;99.90
20364;DHT22;10340;53.664;9.908;2022-11-15T02:35:02;5.20;99.90
20364;DHT22;10340;53.664;9.908;2022-11-15T02:37:41;5.10;99.90
20364;DHT22;10340;53.664;9.908;2022-11-15T02:40:16;5.10;99.90
20364;DHT22;10340;53.664;9.908;2022-11-15T02:42:49;5.10;99.90
20364;DHT22;10340;53.664;9.908;2022-11-15T02:45:39;5.00;99.90
20364;DHT22;10340;53.664;9.908;2022-11-15T02:48:09;5.00;99.90
20364;DHT22;10340;53.664;9.908;2022-11-15T02:50:37;5.00;99.90
20364;DHT22;10340;53.664;9.908;2022-11-15T02:53:04;4.90;99.90
20364;DHT22;10340;53.664;9.908;2022-11-15T02:55:33;4.90;99.90
20364;DHT22;10340;53.664;9.908;2022-11-15T02:58:27;4.90;99.90
20364;DHT22;10340;53.664;9.908;2022-11-15T03:01:00;4.90;99.90
20364;DHT22;10340;53.664;9.908;2022-11-15T03:03:46;4.90;99.90
20364;DHT22;10340;53.664;9.908;2022-11-15T03:06:26;4.80;99.90
20364;DHT22;10340;53.664;9.908;2022-11-15T03:09:02;4.80;99.90
20364;DHT22;10340;53.664;9.908;2022-11-15T03:11:32;4.80;99.90
20364;DHT22;10340;53.664;9.908;2022-11-15T03:14:07;4.80;99.90
20364;DHT22;10340;53.664;9.908;2022-11-15T03:16:38;4.70;99.90
20364;DHT22;10340;53.664;9.908;2022-11-15T03:19:14;4.70;99.90
20364;DHT22;10340;53.664;9.908;2022-11-15T03:21:44;4.60;99.90
20364;DHT22;10340;53.664;9.908;2022-11-15T03:24:12;4.70;99.90
20364;DHT22;10340;53.664;9.908;2022-11-15T03:26:41;4.60;99.90
20364;DHT22;10340;53.664;9.908;2022-11-15T03:29:13;4.60;99.90
20364;DHT22;10340;53.664;9.908;2022-11-15T03:31:44;4.60;99.90
20364;DHT22;10340;53.664;9.908;2022-11-15T03:34:22;4.60;99.90
20364;DHT22;10340;53.664;9.908;2022-11-15T03:36:52;4.60;99.90
20364;DHT22;10340;53.664;9.908;2022-11-15T03:39:20;4.60;99.90
20364;DHT22;10340;53.664;9.908;2022-11-15T03:41:53;4.60;99.90
20364;DHT22;10340;53.664;9.908;2022-11-15T03:44:33;4.60;99.90
20364;DHT22;10340;53.664;9.908;2022-11-15T03:47:06;4.70;99.90
20364;DHT22;10340;53.664;9.908;2022-11-15T03:49:38;4.70;99.90
20364;DHT22;10340;53.664;9.908;2022-11-15T03:52:07;4.70;99.90
20364;DHT22;10340;53.664;9.908;2022-11-15T03:54:36;4.70;99.90
20364;DHT22;10340;53.664;9.908;2022-11-15T03:57:03;4.70;99.90
20364;DHT22;10340;53.664;9.908;2022-11-15T03:59:30;4.70;99.90
20364;DHT22;10340;53.664;9.908;2022-11-15T04:01:57;4.70;99.90
20364;DHT22;10340;53.664;9.908;2022-11-15T04:04:24;4.70;99.90
20364;DHT22;10340;53.664;9.908;2022-11-15T04:06:52;4.70;99.90
20364;DHT22;10340;53.664;9.908;2022-11-15T04:09:19;4.70;99.90
20364;DHT22;10340;53.664;9.908;2022-11-15T04:11:46;4.80;99.90
20364;DHT22;10340;53.664;9.908;2022-11-15T04:14:13;4.70;99.90
20364;DHT22;10340;53.664;9.908;2022-11-15T04:16:40;4.70;99.90
20364;DHT22;10340;53.664;9.908;2022-11-15T04:19:07;4.70;99.90
20364;DHT22;10340;53.664;9.908;2022-11-15T04:21:53;4.80;99.90
20364;DHT22;10340;53.664;9.908;2022-11-15T04:24:37;4.80;99.90
20364;DHT22;10340;53.664;9.908;2022-11-15T04:27:04;4.80;99.90
20364;DHT22;10340;53.664;9.908;2022-11-15T04:29:31;4.80;99.90
20364;DHT22;10340;53.664;9.908;2022-11-15T04:32:00;4.90;99.90
20364;DHT22;10340;53.664;9.908;2022-11-15T04:34:27;4.90;99.90
20364;DHT22;10340;53.664;9.908;2022-11-15T04:36:55;4.90;99.90
20364;DHT22;10340;53.664;9.908;2022-11-15T04:39:42;5.00;99.90
20364;DHT22;10340;53.664;9.908;2022-11-15T04:42:10;5.00;99.90
20364;DHT22;10340;53.664;9.908;2022-11-15T04:44:37;5.00;99.90
20364;DHT22;10340;53.664;9.908;2022-11-15T04:47:05;5.10;99.90
20364;DHT22;10340;53.664;9.908;2022-11-15T04:49:31;5.10;99.90
20364;DHT22;10340;53.664;9.908;2022-11-15T04:52:00;5.20;99.90
20364;DHT22;10340;53.664;9.908;2022-11-15T04:54:27;5.20;99.90
20364;DHT22;10340;53.664;9.908;2022-11-15T04:56:54;5.20;99.90
20364;DHT22;10340;53.664;9.908;2022-11-15T04:59:21;5.20;99.90
20364;DHT22;10340;53.664;9.908;2022-11-15T05:01:48;5.30;99.90
20364;DHT22;10340;53.664;9.908;2022-11-15T05:04:15;5.30;99.90
20364;DHT22;10340;53.664;9.908;2022-11-15T05:06:47;5.40;99.90
20364;DHT22;10340;53.664;9.908;2022-11-15T05:09:16;5.40;99.90
20364;DHT22;10340;53.664;9.908;2022-11-15T05:11:43;5.40;99.90
20364;DHT22;10340;53.664;9.908;2022-11-15T05:14:10;5.50;99.90
20364;DHT22;10340;53.664;9.908;2022-11-15T05:16:39;5.60;99.90
20364;DHT22;10340;53.664;9.908;2022-11-15T05:19:06;5.60;99.90
20364;DHT22;10340;53.664;9.908;2022-11-15T05:21:34;5.60;99.90
20364;DHT22;10340;53.664;9.908;2022-11-15T05:24:01;5.70;99.90
20364;DHT22;10340;53.664;9.908;2022-11-15T05:26:30;5.70;99.90
20364;DHT22;10340;53.664;9.908;2022-11-15T05:28:58;5.70;99.90
20364;DHT22;10340;53.664;9.908;2022-11-15T05:31:26;5.80;99.90
20364;DHT22;10340;53.664;9.908;2022-11-15T05:33:53;5.80;99.90
20364;DHT22;10340;53.664;9.908;2022-11-15T05:36:27;5.90;99.90
20364;DHT22;10340;53.664;9.908;2022-11-15T05:38:56;5.90;99.90
20364;DHT22;10340;53.664;9.908;2022-11-15T05:41:30;5.90;99.90
20364;DHT22;10340;53.664;9.908;2022-11-15T05:44:00;5.90;99.90
20364;DHT22;10340;53.664;9.908;2022-11-15T05:46:28;6.00;99.90
20364;DHT22;10340;53.664;9.908;2022-11-15T05:48:56;6.00;99.90
20364;DHT22;10340;53.664;9.908;2022-11-15T05:51:24;6.10;99.90
20364;DHT22;10340;53.664;9.908;2022-11-15T05:53:55;6.10;99.90
20364;DHT22;10340;53.664;9.908;2022-11-15T05:56:23;6.20;99.90
20364;DHT22;10340;53.664;9.908;2022-11-15T05:58:53;6.20;99.90
20364;DHT22;10340;53.664;9.908;2022-11-15T06:01:21;6.20;99.90
20364;DHT22;10340;53.664;9.908;2022-11-15T06:03:48;6.20;99.90
20364;DHT22;10340;53.664;9.908;2022-11-15T06:06:15;6.20;99.90
20364;DHT22;10340;53.664;9.908;2022-11-15T06:08:42;6.20;99.90
20364;DHT22;10340;53.664;9.908;2022-11-15T06:11:09;6.30;99.90
20364;DHT22;10340;53.664;9.908;2022-11-15T06:13:36;6.30;99.90
20364;DHT22;10340;53.664;9.908;2022-11-15T06:16:05;6.40;99.90
20364;DHT22;10340;53.664;9.908;2022-11-15T06:18:32;6.30;99.90
20364;DHT22;10340;53.664;9.908;2022-11-15T06:21:00;6.40;99.90
20364;DHT22;10340;53.664;9.908;2022-11-15T06:23:27;6.40;99.90
20364;DHT22;10340;53.664;9.908;2022-11-15T06:25:57;6.40;99.90
20364;DHT22;10340;53.664;9.908;2022-11-15T06:28:24;6.50;99.90
20364;DHT22;10340;53.664;9.908;2022-11-15T06:30:51;6.50;99.90
20364;DHT22;10340;53.664;9.908;2022-11-15T06:33:20;6.50;99.90
20364;DHT22;10340;53.664;9.908;2022-11-15T06:35:47;6.60;99.90
20364;DHT22;10340;53.664;9.908;2022-11-15T06:38:14;6.60;99.90
20364;DHT22;10340;53.664;9.908;2022-11-15T06:40:41;6.70;99.90
20364;DHT22;10340;53.664;9.908;2022-11-15T06:43:08;6.70;99.90
20364;DHT22;10340;53.664;9.908;2022-11-15T06:45:35;6.70;99.90
20364;DHT22;10340;53.664;9.908;2022-11-15T06:48:02;6.70;99.90
20364;DHT22;10340;53.664;9.908;2022-11-15T06:50:31;6.80;99.90
20364;DHT22;10340;53.664;9.908;2022-11-15T06:53:01;6.80;99.90
20364;DHT22;10340;53.664;9.908;2022-11-15T06:55:29;6.80;99.90
20364;DHT22;10340;53.664;9.908;2022-11-15T06:57:56;6.80;99.90
20364;DHT22;10340;53.664;9.908;2022-11-15T07:00:23;6.90;99.90
20364;DHT22;10340;53.664;9.908;2022-11-15T07:02:50;6.90;99.90
20364;DHT22;10340;53.664;9.908;2022-11-15T07:05:17;7.00;99.90
20364;DHT22;10340;53.664;9.908;2022-11-15T07:07:51;7.00;99.90
20364;DHT22;10340;53.664;9.908;2022-11-15T07:10:18;7.00;99.90
20364;DHT22;10340;53.664;9.908;2022-11-15T07:12:47;7.00;99.90
20364;DHT22;10340;53.664;9.908;2022-11-15T07:15:14;7.00;99.90
20364;DHT22;10340;53.664;9.908;2022-11-15T07:17:41;7.00;99.90
20364;DHT22;10340;53.664;9.908;2022-11-15T07:20:09;7.10;99.90
20364;DHT22;10340;53.664;9.908;2022-11-15T07:22:36;7.10;99.90
20364;DHT22;10340;53.664;9.908;2022-11-15T07:25:05;7.10;99.90
20364;DHT22;10340;53.664;9.908;2022-11-15T07:27:32;7.10;99.90
20364;DHT22;10340;53.664;9.908;2022-11-15T07:29:59;7.20;99.90
20364;DHT22;10340;53.664;9.908;2022-11-15T07:32:27;7.20;99.90
20364;DHT22;10340;53.664;9.908;2022-11-15T07:34:54;7.20;99.90
20364;DHT22;10340;53.664;9.908;2022-11-15T07:37:21;7.30;99.90
20364;DHT22;10340;53.664;9.908;2022-11-15T07:39:48;7.30;99.90
20364;DHT22;10340;53.664;9.908;2022-11-15T07:42:17;7.30;99.90
20364;DHT22;10340;53.664;9.908;2022-11-15T07:45:01;7.30;99.90
20364;DHT22;10340;53.664;9.908;2022-11-15T07:47:28;7.40;99.90
20364;DHT22;10340;53.664;9.908;2022-11-15T07:49:55;7.40;99.90
20364;DHT22;10340;53.664;9.908;2022-11-15T07:52:23;7.40;99.90
20364;DHT22;10340;53.664;9.908;2022-11-15T07:54:51;7.40;99.90
20364;DHT22;10340;53.664;9.908;2022-11-15T07:57:19;7.40;99.90
20364;DHT22;10340;53.664;9.908;2022-11-15T07:59:46;7.90;99.90
20364;DHT22;10340;53.664;9.908;2022-11-15T08:02:13;7.50;99.90
20364;DHT22;10340;53.664;9.908;2022-11-15T08:04:42;7.60;99.90
20364;DHT22;10340;53.664;9.908;2022-11-15T08:07:09;7.60;99.90
20364;DHT22;10340;53.664;9.908;2022-11-15T08:09:36;7.60;99.90
20364;DHT22;10340;53.664;9.908;2022-11-15T08:12:03;7.60;99.90
20364;DHT22;10340;53.664;9.908;2022-11-15T08:14:32;7.60;99.90
20364;DHT22;10340;53.664;9.908;2022-11-15T08:16:59;7.60;99.90
20364;DHT22;10340;53.664;9.908;2022-11-15T08:19:26;7.60;99.90
20364;DHT22;10340;53.664;9.908;2022-11-15T08:21:53;7.60;99.90
20364;DHT22;10340;53.664;9.908;2022-11-15T08:24:20;7.70;99.90
20364;DHT22;10340;53.664;9.908;2022-11-15T08:26:47;7.70;99.90
20364;DHT22;10340;53.664;9.908;2022-11-15T08:29:14;7.70;99.90
20364;DHT22;10340;53.664;9.908;2022-11-15T08:31:42;7.70;99.90
20364;DHT22;10340;53.664;9.908;2022-11-15T08:34:09;7.80;99.90
20364;DHT22;10340;53.664;9.908;2022-11-15T08:36:36;7.80;99.90
20364;DHT22;10340;53.664;9.908;2022-11-15T08:39:03;7.80;99.90
20364;DHT22;10340;53.664;9.908;2022-11-15T08:41:34;7.90;99.90
20364;DHT22;10340;53.664;9.908;2022-11-15T08:44:02;7.90;99.90
20364;DHT22;10340;53.664;9.908;2022-11-15T08:46:29;7.90;99.90
20364;DHT22;10340;53.664;9.908;2022-11-15T08:48:57;7.90;99.90
20364;DHT22;10340;53.664;9.908;2022-11-15T08:51:24;8.00;99.90
20364;DHT22;10340;53.664;9.908;2022-11-15T08:53:51;8.00;99.90
20364;DHT22;10340;53.664;9.908;2022-11-15T08:56:18;8.00;99.90
20364;DHT22;10340;53.664;9.908;2022-11-15T08:58:45;8.00;99.90
20364;DHT22;10340;53.664;9.908;2022-11-15T09:01:17;8.00;99.90
20364;DHT22;10340;53.664;9.908;2022-11-15T09:03:44;8.00;99.90
20364;DHT22;10340;53.664;9.908;2022-11-15T09:06:13;8.00;99.90
20364;DHT22;10340;53.664;9.908;2022-11-15T09:08:40;8.10;99.90
20364;DHT22;10340;53.664;9.908;2022-11-15T09:11:08;8.00;99.90
20364;DHT22;10340;53.664;9.908;2022-11-15T09:13:36;6.70;99.90
20364;DHT22;10340;53.664;9.908;2022-11-15T09:16:04;8.10;99.90
20364;DHT22;10340;53.664;9.908;2022-11-15T09:18:31;8.10;99.90
20364;DHT22;10340;53.664;9.908;2022-11-15T09:20:59;8.10;99.90
20364;DHT22;10340;53.664;9.908;2022-11-15T09:23:29;8.10;99.90
20364;DHT22;10340;53.664;9.908;2022-11-15T09:25:59;8.20;99.90
20364;DHT22;10340;53.664;9.908;2022-11-15T09:28:27;8.20;99.90
20364;DHT22;10340;53.664;9.908;2022-11-15T09:30:56;8.20;99.90
20364;DHT22;10340;53.664;9.908;2022-11-15T09:33:24;8.30;99.90
20364;DHT22;10340;53.664;9.908;2022-11-15T09:35:52;8.30;99.90
20364;DHT22;10340;53.664;9.908;2022-11-15T09:38:19;8.40;99.90
20364;DHT22;10340;53.664;9.908;2022-11-15T09:41:09;8.50;99.90
20364;DHT22;10340;53.664;9.908;2022-11-15T09:43:49;8.50;99.90
20364;DHT22;10340;53.664;9.908;2022-11-15T09:46:25;8.60;99.90
20364;DHT22;10340;53.664;9.908;2022-11-15T09:48:54;8.70;99.90
20364;DHT22;10340;53.664;9.908;2022-11-15T09:51:28;8.70;99.90
20364;DHT22;10340;53.664;9.908;2022-11-15T09:54:01;8.70;99.90
20364;DHT22;10340;53.664;9.908;2022-11-15T09:56:34;8.80;99.90
20364;DHT22;10340;53.664;9.908;2022-11-15T09:59:12;8.80;99.90
20364;DHT22;10340;53.664;9.908;2022-11-15T10:01:47;8.90;99.90
20364;DHT22;10340;53.664;9.908;2022-11-15T10:04:15;9.00;99.90
20364;DHT22;10340;53.664;9.908;2022-11-15T10:06:46;9.10;99.90
20364;DHT22;10340;53.664;9.908;2022-11-15T10:09:19;9.20;99.90
20364;DHT22;10340;53.664;9.908;2022-11-15T10:11:48;9.30;99.90
20364;DHT22;10340;53.664;9.908;2022-11-15T10:14:17;9.30;99.90
20364;DHT22;10340;53.664;9.908;2022-11-15T10:17:18;9.30;99.90
20364;DHT22;10340;53.664;9.908;2022-11-15T10:19:55;9.40;99.90
20364;DHT22;10340;53.664;9.908;2022-11-15T10:22:27;9.40;99.90
20364;DHT22;10340;53.664;9.908;2022-11-15T10:25:09;9.40;99.90
20364;DHT22;10340;53.664;9.908;2022-11-15T10:27:39;9.40;99.90
20364;DHT22;10340;53.664;9.908;2022-11-15T10:30:11;9.40;99.90
20364;DHT22;10340;53.664;9.908;2022-11-15T10:32:40;9.50;99.90
20364;DHT22;10340;53.664;9.908;2022-11-15T10:35:23;9.50;99.90
20364;DHT22;10340;53.664;9.908;2022-11-15T10:37:51;9.60;99.90
20364;DHT22;10340;53.664;9.908;2022-11-15T10:40:20;9.70;99.90
20364;DHT22;10340;53.664;9.908;2022-11-15T10:43:05;9.60;99.90
20364;DHT22;10340;53.664;9.908;2022-11-15T10:45:33;9.60;99.90
20364;DHT22;10340;53.664;9.908;2022-11-15T10:48:21;9.60;99.90
20364;DHT22;10340;53.664;9.908;2022-11-15T10:50:49;9.60;99.90
20364;DHT22;10340;53.664;9.908;2022-11-15T10:53:26;9.60;99.90
20364;DHT22;10340;53.664;9.908;2022-11-15T10:55:56;9.70;99.90
20364;DHT22;10340;53.664;9.908;2022-11-15T10:58:36;9.70;99.90
20364;DHT22;10340;53.664;9.908;2022-11-15T11:01:16;9.70;99.90
20364;DHT22;10340;53.664;9.908;2022-11-15T11:03:45;9.70;99.90
20364;DHT22;10340;53.664;9.908;2022-11-15T11:06:14;9.80;99.90
20364;DHT22;10340;53.664;9.908;2022-11-15T11:08:54;9.80;99.90
20364;DHT22;10340;53.664;9.908;2022-11-15T11:11:21;9.90;99.90
20364;DHT22;10340;53.664;9.908;2022-11-15T11:13:49;9.90;99.90
20364;DHT22;10340;53.664;9.908;2022-11-15T11:16:40;10.00;99.90
20364;DHT22;10340;53.664;9.908;2022-11-15T11:19:39;8.70;99.90
20364;DHT22;10340;53.664;9.908;2022-11-15T11:22:17;10.10;99.90
20364;DHT22;10340;53.664;9.908;2022-11-15T11:24:54;10.10;99.90
20364;DHT22;10340;53.664;9.908;2022-11-15T11:27:36;10.20;99.90
20364;DHT22;10340;53.664;9.908;2022-11-15T11:30:13;10.20;99.90
20364;DHT22;10340;53.664;9.908;2022-11-15T11:33:07;10.30;99.90
20364;DHT22;10340;53.664;9.908;2022-11-15T11:35:45;10.30;99.90
20364;DHT22;10340;53.664;9.908;2022-11-15T11:38:23;10.30;99.90
20364;DHT22;10340;53.664;9.908;2022-11-15T11:41:00;10.40;99.90
20364;DHT22;10340;53.664;9.908;2022-11-15T11:43:36;10.40;99.90
20364;DHT22;10340;53.664;9.908;2022-11-15T11:46:21;10.50;99.90
20364;DHT22;10340;53.664;9.908;2022-11-15T11:48:54;10.60;99.90
20364;DHT22;10340;53.664;9.908;2022-11-15T11:51:27;10.60;99.90
20364;DHT22;10340;53.664;9.908;2022-11-15T11:53:58;10.70;99.90
20364;DHT22;10340;53.664;9.908;2022-11-15T11:56:29;10.70;99.90
20364;DHT22;10340;53.664;9.908;2022-11-15T11:59:04;10.70;99.90
20364;DHT22;10340;53.664;9.908;2022-11-15T12:01:37;10.70;99.90
20364;DHT22;10340;53.664;9.908;2022-11-15T12:04:13;10.80;99.90
20364;DHT22;10340;53.664;9.908;2022-11-15T12:06:46;10.80;99.90
20364;DHT22;10340;53.664;9.908;2022-11-15T12:09:18;10.90;99.90
20364;DHT22;10340;53.664;9.908;2022-11-15T12:11:52;9.80;99.90
20364;DHT22;10340;53.664;9.908;2022-11-15T12:14:28;10.90;99.90
20364;DHT22;10340;53.664;9.908;2022-11-15T12:16:59;11.00;99.90
20364;DHT22;10340;53.664;9.908;2022-11-15T12:19:26;11.00;99.90
20364;DHT22;10340;53.664;9.908;2022-11-15T12:22:02;11.00;99.90
20364;DHT22;10340;53.664;9.908;2022-11-15T12:24:37;11.00;99.90
20364;DHT22;10340;53.664;9.908;2022-11-15T12:27:13;11.00;99.90
20364;DHT22;10340;53.664;9.908;2022-11-15T12:29:43;11.10;99.90
20364;DHT22;10340;53.664;9.908;2022-11-15T12:32:24;11.20;99.90
20364;DHT22;10340;53.664;9.908;2022-11-15T12:34:52;11.20;99.90
20364;DHT22;10340;53.664;9.908;2022-11-15T12:40:26;11.40;99.90
20364;DHT22;10340;53.664;9.908;2022-11-15T12:43:32;11.40;99.90
20364;DHT22;10340;53.664;9.908;2022-11-15T12:46:03;11.50;99.90
20364;DHT22;10340;53.664;9.908;2022-11-15T12:48:59;11.50;99.90
20364;DHT22;10340;53.664;9.908;2022-11-15T12:57:45;11.70;99.90
20364;DHT22;10340;53.664;9.908;2022-11-15T13:00:45;11.70;99.90
20364;DHT22;10340;53.664;9.908;2022-11-15T13:03:26;11.80;99.90
20364;DHT22;10340;53.664;9.908;2022-11-15T13:08:52;11.90;99.90
20364;DHT22;10340;53.664;9.908;2022-11-15T13:11:42;11.90;99.90
20364;DHT22;10340;53.664;9.908;2022-11-15T13:17:36;11.90;99.90
20364;DHT22;10340;53.664;9.908;2022-11-15T13:20:23;11.90;99.90
20364;DHT22;10340;53.664;9.908;2022-11-15T13:23:00;12.00;99.90
20364;DHT22;10340;53.664;9.908;2022-11-15T13:28:29;12.00;99.90
20364;DHT22;10340;53.664;9.908;2022-11-15T13:30:59;12.10;99.90
20364;DHT22;10340;53.664;9.908;2022-11-15T13:33:31;12.10;99.90
20364;DHT22;10340;53.664;9.908;2022-11-15T13:36:00;12.10;99.90
20364;DHT22;10340;53.664;9.908;2022-11-15T13:38:30;12.10;99.90
20364;DHT22;10340;53.664;9.908;2022-11-15T13:40:59;12.10;99.90
20364;DHT22;10340;53.664;9.908;2022-11-15T13:43:31;12.10;99.90
20364;DHT22;10340;53.664;9.908;2022-11-15T13:46:05;12.10;99.90
20364;DHT22;10340;53.664;9.908;2022-11-15T13:48:33;12.10;99.90
20364;DHT22;10340;53.664;9.908;2022-11-15T13:51:01;12.00;99.90
20364;DHT22;10340;53.664;9.908;2022-11-15T13:53:31;12.00;99.90
20364;DHT22;10340;53.664;9.908;2022-11-15T13:55:59;12.00;99.90
20364;DHT22;10340;53.664;9.908;2022-11-15T13:58:27;12.00;99.90
20364;DHT22;10340;53.664;9.908;2022-11-15T14:00:59;12.10;99.90
20364;DHT22;10340;53.664;9.908;2022-11-15T14:03:30;12.10;99.90
20364;DHT22;10340;53.664;9.908;2022-11-15T14:06:16;12.10;99.90
20364;DHT22;10340;53.664;9.908;2022-11-15T14:09:01;12.10;99.90
20364;DHT22;10340;53.664;9.908;2022-11-15T14:11:29;12.10;99.90
20364;DHT22;10340;53.664;9.908;2022-11-15T14:14:08;12.10;99.90
20364;DHT22;10340;53.664;9.908;2022-11-15T14:16:39;12.10;99.90
20364;DHT22;10340;53.664;9.908;2022-11-15T14:19:10;12.10;99.90
20364;DHT22;10340;53.664;9.908;2022-11-15T14:21:37;12.00;99.90
20364;DHT22;10340;53.664;9.908;2022-11-15T14:24:30;12.00;99.90
20364;DHT22;10340;53.664;9.908;2022-11-15T14:27:19;12.00;99.90
20364;DHT22;10340;53.664;9.908;2022-11-15T14:29:47;11.90;99.90
20364;DHT22;10340;53.664;9.908;2022-11-15T14:32:16;11.90;99.90
20364;DHT22;10340;53.664;9.908;2022-11-15T14:34:44;11.90;99.90
20364;DHT22;10340;53.664;9.908;2022-11-15T14:37:20;11.80;99.90
20364;DHT22;10340;53.664;9.908;2022-11-15T14:39:49;11.80;99.90
20364;DHT22;10340;53.664;9.908;2022-11-15T14:42:16;11.70;99.90
20364;DHT22;10340;53.664;9.908;2022-11-15T14:44:43;11.70;99.90
20364;DHT22;10340;53.664;9.908;2022-11-15T14:47:11;11.70;99.90
20364;DHT22;10340;53.664;9.908;2022-11-15T14:49:38;11.60;99.90
20364;DHT22;10340;53.664;9.908;2022-11-15T14:52:12;11.60;99.90
20364;DHT22;10340;53.664;9.908;2022-11-15T14:54:43;11.60;99.90
20364;DHT22;10340;53.664;9.908;2022-11-15T14:57:12;11.50;99.90
20364;DHT22;10340;53.664;9.908;2022-11-15T14:59:38;11.50;99.90
20364;DHT22;10340;53.664;9.908;2022-11-15T15:02:12;11.50;99.90
20364;DHT22;10340;53.664;9.908;2022-11-15T15:04:41;11.40;99.90
20364;DHT22;10340;53.664;9.908;2022-11-15T15:07:08;11.40;99.90
20364;DHT22;10340;53.664;9.908;2022-11-15T15:09:35;11.40;99.90
20364;DHT22;10340;53.664;9.908;2022-11-15T15:12:03;11.30;99.90
20364;DHT22;10340;53.664;9.908;2022-11-15T15:14:31;11.30;99.90
20364;DHT22;10340;53.664;9.908;2022-11-15T15:16:59;11.20;99.90
20364;DHT22;10340;53.664;9.908;2022-11-15T15:19:26;11.10;99.90
20364;DHT22;10340;53.664;9.908;2022-11-15T15:21:53;11.10;99.90
20364;DHT22;10340;53.664;9.908;2022-11-15T15:24:20;11.00;99.90
20364;DHT22;10340;53.664;9.908;2022-11-15T15:26:47;10.90;99.90
20364;DHT22;10340;53.664;9.908;2022-11-15T15:29:14;10.80;99.90
20364;DHT22;10340;53.664;9.908;2022-11-15T15:31:42;10.80;99.90
20364;DHT22;10340;53.664;9.908;2022-11-15T15:34:09;10.70;99.90
20364;DHT22;10340;53.664;9.908;2022-11-15T15:36:36;10.60;99.90
20364;DHT22;10340;53.664;9.908;2022-11-15T15:39:03;10.60;99.90
20364;DHT22;10340;53.664;9.908;2022-11-15T15:41:30;10.50;99.90
20364;DHT22;10340;53.664;9.908;2022-11-15T15:43:57;10.50;99.90
20364;DHT22;10340;53.664;9.908;2022-11-15T15:46:24;10.40;99.90
20364;DHT22;10340;53.664;9.908;2022-11-15T15:48:53;10.30;99.90
20364;DHT22;10340;53.664;9.908;2022-11-15T15:51:20;10.30;99.90
20364;DHT22;10340;53.664;9.908;2022-11-15T15:53:47;10.20;99.90
20364;DHT22;10340;53.664;9.908;2022-11-15T15:56:16;10.20;99.90
20364;DHT22;10340;53.664;9.908;2022-11-15T15:58:43;10.20;99.90
20364;DHT22;10340;53.664;9.908;2022-11-15T16:01:10;10.10;99.90
20364;DHT22;10340;53.664;9.908;2022-11-15T16:03:37;10.10;99.90
20364;DHT22;10340;53.664;9.908;2022-11-15T16:06:34;10.00;99.90
20364;DHT22;10340;53.664;9.908;2022-11-15T16:09:01;9.90;99.90
20364;DHT22;10340;53.664;9.908;2022-11-15T16:11:28;9.90;99.90
20364;DHT22;10340;53.664;9.908;2022-11-15T16:13:55;9.90;99.90
20364;DHT22;10340;53.664;9.908;2022-11-15T16:16:22;9.80;99.90
20364;DHT22;10340;53.664;9.908;2022-11-15T16:18:50;9.80;99.90
20364;DHT22;10340;53.664;9.908;2022-11-15T16:21:18;9.80;99.90
20364;DHT22;10340;53.664;9.908;2022-11-15T16:23:46;9.80;99.90
20364;DHT22;10340;53.664;9.908;2022-11-15T16:26:19;7.80;99.90